createdAt,value
2024-03-08T00:00:20.530Z,98653.38
2024-03-08T00:02:52.469Z,98654.16
2024-03-08T00:05:20.570Z,98639.31
2024-03-08T00:07:48.945Z,98646.09
2024-03-08T00:10:18.187Z,98642.44
2024-03-08T00:12:47.512Z,98638.09
2024-03-08T00:15:20.177Z,98627.66
2024-03-08T00:17:49.432Z,98632.56
2024-03-08T00:20:19.661Z,98635.03
2024-03-08T00:22:48.351Z,98632.50
2024-03-08T00:25:17.236Z,98636.13
2024-03-08T00:27:45.324Z,98631.16
2024-03-08T00:30:14.924Z,98632.97
2024-03-08T00:32:44.861Z,98616.97
2024-03-08T00:35:13.669Z,98622.28
2024-03-08T00:37:43.399Z,98618.06
2024-03-08T00:40:12.106Z,98613.78
2024-03-08T00:42:41.428Z,98616.41
2024-03-08T00:45:11.387Z,98610.19
2024-03-08T00:47:40.277Z,98617.59
2024-03-08T00:50:10.579Z,98612.53
2024-03-08T00:52:38.759Z,98602.44
2024-03-08T00:55:07.371Z,98612.53
2024-03-08T00:57:35.097Z,98615.03
2024-03-08T01:00:06.712Z,98614.66
2024-03-08T01:02:36.715Z,98611.63
2024-03-08T01:05:08.433Z,98604.91
2024-03-08T01:07:37.965Z,98599.78
2024-03-08T01:10:10.953Z,98596.88
2024-03-08T01:12:39.006Z,98595.66
2024-03-08T01:15:08.157Z,98601.38
2024-03-08T01:17:36.581Z,98586.75
2024-03-08T01:20:05.062Z,98588.25
2024-03-08T01:22:32.853Z,98586.47
2024-03-08T01:25:01.899Z,98578.72
2024-03-08T01:27:30.303Z,98580.28
2024-03-08T01:29:58.130Z,98575.81
2024-03-08T01:32:26.367Z,98577.44
2024-03-08T01:34:54.401Z,98575.50
2024-03-08T01:37:22.185Z,98573.28
2024-03-08T01:39:50.453Z,98568.91
2024-03-08T01:42:19.629Z,98563.22
2024-03-08T01:44:47.721Z,98564.03
2024-03-08T01:47:15.554Z,98560.63
2024-03-08T01:49:43.407Z,98555.78
2024-03-08T01:52:12.679Z,98545.31
2024-03-08T01:54:42.397Z,98547.03
2024-03-08T01:57:10.573Z,98538.56
2024-03-08T01:59:40.144Z,98540.94
2024-03-08T02:02:10.641Z,98533.28
2024-03-08T02:04:39.874Z,98529.72
2024-03-08T02:07:10.893Z,98521.91
2024-03-08T02:09:39.383Z,98524.69
2024-03-08T02:12:07.484Z,98520.84
2024-03-08T02:14:41.262Z,98514.13
2024-03-08T02:17:09.589Z,98511.69
2024-03-08T02:19:37.613Z,98512.69
2024-03-08T02:22:08.444Z,98502.78
2024-03-08T02:24:36.715Z,98512.81
2024-03-08T02:27:04.956Z,98504.31
2024-03-08T02:29:35.418Z,98501.75
2024-03-08T02:32:04.167Z,98497.53
2024-03-08T02:34:33.405Z,98499.97
2024-03-08T02:37:01.141Z,98497.50
2024-03-08T02:39:30.589Z,98497.41
2024-03-08T02:41:58.470Z,98494.19
2024-03-08T02:44:26.289Z,98485.13
2024-03-08T02:46:56.172Z,98497.72
2024-03-08T02:49:24.209Z,98498.69
2024-03-08T02:51:52.227Z,98497.78
2024-03-08T02:54:20.515Z,98493.72
2024-03-08T02:56:51.542Z,98492.94
2024-03-08T02:59:20.193Z,98488.38
2024-03-08T03:01:47.994Z,98484.91
2024-03-08T03:04:16.060Z,98484.72
2024-03-08T03:06:43.839Z,98481.28
2024-03-08T03:09:12.112Z,98473.31
2024-03-08T03:11:40.145Z,98467.41
2024-03-08T03:14:10.240Z,98460.25
2024-03-08T03:16:38.062Z,98472.31
2024-03-08T03:19:06.841Z,98474.81
2024-03-08T03:21:36.951Z,98472.22
2024-03-08T03:24:06.370Z,98470.41
2024-03-08T03:26:34.216Z,98469.66
2024-03-08T03:29:04.366Z,98468.59
2024-03-08T03:31:33.620Z,98468.38
2024-03-08T03:34:04.109Z,98458.94
2024-03-08T03:36:32.576Z,98456.59
2024-03-08T03:39:12.014Z,98454.06
2024-03-08T03:41:40.406Z,98449.44
2024-03-08T03:44:08.663Z,98453.78
2024-03-08T03:46:37.855Z,98450.25
2024-03-08T03:49:05.898Z,98446.72
2024-03-08T03:51:33.719Z,98444.28
2024-03-08T03:54:01.982Z,98441.91
2024-03-08T03:56:30.072Z,98443.38
2024-03-08T03:58:58.140Z,98439.50
2024-03-08T04:01:26.152Z,98442.78
2024-03-08T04:03:55.610Z,98440.50
2024-03-08T04:06:23.801Z,98437.97
2024-03-08T04:08:52.082Z,98438.81
2024-03-08T04:11:19.930Z,98440.72
2024-03-08T04:13:47.934Z,98441.66
2024-03-08T04:16:16.419Z,98445.09
2024-03-08T04:18:44.902Z,98442.16
2024-03-08T04:21:14.511Z,98439.63
2024-03-08T04:23:42.612Z,98440.53
2024-03-08T04:26:10.583Z,98433.53
2024-03-08T04:28:40.682Z,98435.06
2024-03-08T04:31:08.755Z,98427.38
2024-03-08T04:33:36.976Z,98424.00
2024-03-08T04:36:05.418Z,98424.66
2024-03-08T04:38:34.663Z,98411.66
2024-03-08T04:41:02.945Z,98420.69
2024-03-08T04:43:31.655Z,98420.66
2024-03-08T04:45:59.692Z,98421.22
2024-03-08T04:48:27.964Z,98422.78
2024-03-08T04:50:56.897Z,98420.00
2024-03-08T04:53:25.229Z,98420.81
2024-03-08T04:55:54.547Z,98418.94
2024-03-08T04:58:22.579Z,98416.22
2024-03-08T05:00:51.174Z,98416.00
2024-03-08T05:03:18.959Z,98410.94
2024-03-08T05:05:47.257Z,98415.09
2024-03-08T05:08:15.064Z,98416.53
2024-03-08T05:10:43.347Z,98398.88
2024-03-08T05:13:14.073Z,98409.63
2024-03-08T05:15:42.268Z,98410.41
2024-03-08T05:18:12.572Z,98401.34
2024-03-08T05:20:42.378Z,98400.72
2024-03-08T05:23:10.617Z,98403.84
2024-03-08T05:25:38.504Z,98407.19
2024-03-08T05:28:07.857Z,98402.72
2024-03-08T05:30:38.083Z,98404.94
2024-03-08T05:33:06.376Z,98400.88
2024-03-08T05:35:34.924Z,98402.41
2024-03-08T05:38:03.069Z,98398.25
2024-03-08T05:40:33.079Z,98403.91
2024-03-08T05:43:01.649Z,98381.22
2024-03-08T05:45:29.377Z,98393.00
2024-03-08T05:47:59.339Z,98401.56
2024-03-08T05:50:28.469Z,98387.81
2024-03-08T05:52:56.689Z,98393.06
2024-03-08T05:55:26.105Z,98392.28
2024-03-08T05:57:55.027Z,98392.47
2024-03-08T06:00:24.047Z,98393.28
2024-03-08T06:02:52.817Z,98391.59
2024-03-08T06:05:24.499Z,98390.69
2024-03-08T06:07:54.457Z,98392.50
2024-03-08T06:10:22.525Z,98389.94
2024-03-08T06:12:51.754Z,98390.84
2024-03-08T06:15:22.448Z,98396.28
2024-03-08T06:17:50.714Z,98400.53
2024-03-08T06:20:18.629Z,98393.16
2024-03-08T06:22:48.303Z,98398.75
2024-03-08T06:25:17.008Z,98399.16
2024-03-08T06:27:44.796Z,98399.53
2024-03-08T06:30:13.676Z,98405.16
2024-03-08T06:32:43.984Z,98395.44
2024-03-08T06:35:12.512Z,98398.44
2024-03-08T06:37:40.566Z,98402.38
2024-03-08T06:40:15.478Z,98400.31
2024-03-08T06:42:43.930Z,98404.97
2024-03-08T06:45:14.129Z,98403.69
2024-03-08T06:47:43.153Z,98393.97
2024-03-08T06:50:12.953Z,98401.94
2024-03-08T06:52:41.284Z,98397.13
2024-03-08T06:55:13.425Z,98395.63
2024-03-08T06:57:41.726Z,98390.88
2024-03-08T07:00:12.809Z,98389.47
2024-03-08T07:02:41.714Z,98388.03
2024-03-08T07:05:12.053Z,98392.47
2024-03-08T07:07:42.698Z,98397.69
2024-03-08T07:10:15.857Z,98396.13
2024-03-08T07:12:44.134Z,98390.47
2024-03-08T07:15:15.085Z,98387.38
2024-03-08T07:17:45.515Z,98378.03
2024-03-08T07:20:14.886Z,98373.22
2024-03-08T07:22:44.000Z,98375.91
2024-03-08T07:25:22.860Z,98375.28
2024-03-08T07:27:52.529Z,98369.38
2024-03-08T07:30:34.947Z,98364.69
2024-03-08T07:33:04.029Z,98373.16
2024-03-08T07:35:32.390Z,98366.41
2024-03-08T07:38:01.080Z,98365.75
2024-03-08T07:40:30.694Z,98372.56
2024-03-08T07:42:59.694Z,98372.69
2024-03-08T07:45:27.755Z,98370.34
2024-03-08T07:47:57.360Z,98368.66
2024-03-08T07:50:25.148Z,98367.72
2024-03-08T07:52:53.674Z,98364.34
2024-03-08T07:55:21.481Z,98372.75
2024-03-08T07:57:51.099Z,98362.63
2024-03-08T08:00:19.926Z,98365.34
2024-03-08T08:02:47.994Z,98360.31
2024-03-08T08:05:16.086Z,98362.94
2024-03-08T08:07:49.119Z,98362.97
2024-03-08T08:10:19.974Z,98362.09
2024-03-08T08:12:48.368Z,98356.19
2024-03-08T08:15:17.721Z,98359.72
2024-03-08T08:17:45.991Z,98361.63
2024-03-08T08:20:14.726Z,98352.56
2024-03-08T08:22:44.191Z,98356.81
2024-03-08T08:25:14.795Z,98349.22
2024-03-08T08:27:44.439Z,98351.97
2024-03-08T08:30:15.522Z,98338.50
2024-03-08T08:32:45.087Z,98326.75
2024-03-08T08:35:14.631Z,98336.91
2024-03-08T08:37:43.412Z,98339.50
2024-03-08T08:40:16.573Z,98341.31
2024-03-08T08:42:45.111Z,98335.34
2024-03-08T08:45:16.934Z,98341.13
2024-03-08T08:47:48.314Z,98328.97
2024-03-08T08:50:17.470Z,98320.75
2024-03-08T08:52:46.225Z,98298.75
2024-03-08T08:55:16.395Z,98325.59
2024-03-08T08:57:45.317Z,98289.00
2024-03-08T09:00:16.746Z,98330.16
2024-03-08T09:02:45.756Z,98279.63
2024-03-08T09:05:23.006Z,98320.09
2024-03-08T09:07:51.202Z,98317.38
2024-03-08T09:10:19.922Z,98311.69
2024-03-08T09:12:48.588Z,98306.47
2024-03-08T09:15:21.871Z,98315.13
2024-03-08T09:17:50.428Z,98314.38
2024-03-08T09:20:20.160Z,98318.56
2024-03-08T09:22:48.115Z,98316.81
2024-03-08T09:25:16.426Z,98307.50
2024-03-08T09:27:44.170Z,98313.53
2024-03-08T09:30:16.815Z,98314.53
2024-03-08T09:32:45.365Z,98301.00
2024-03-08T09:35:13.729Z,98300.38
2024-03-08T09:37:43.368Z,98293.66
2024-03-08T09:40:12.002Z,98298.94
2024-03-08T09:42:40.041Z,98292.06
2024-03-08T09:45:11.871Z,98286.81
2024-03-08T09:47:42.983Z,98291.16
2024-03-08T09:50:13.708Z,98284.41
2024-03-08T09:52:44.990Z,98292.06
2024-03-08T09:55:13.853Z,98295.34
2024-03-08T09:57:43.916Z,98297.03
2024-03-08T10:00:25.705Z,98284.47
2024-03-08T10:02:55.022Z,98274.34
2024-03-08T10:05:24.449Z,98271.91
2024-03-08T10:07:54.281Z,98272.75
2024-03-08T10:10:23.193Z,98272.09
2024-03-08T10:12:51.215Z,98271.38
2024-03-08T10:15:19.552Z,98272.31
2024-03-08T10:17:47.452Z,98273.97
2024-03-08T10:20:17.225Z,98269.66
2024-03-08T10:22:54.379Z,98268.84
2024-03-08T10:25:32.177Z,98261.22
2024-03-08T10:27:59.899Z,98262.13
2024-03-08T10:30:29.077Z,98257.84
2024-03-08T10:32:57.278Z,98249.34
2024-03-08T10:35:25.356Z,98257.13
2024-03-08T10:38:00.923Z,98241.75
2024-03-08T10:40:30.037Z,98238.28
2024-03-08T10:43:00.926Z,98235.84
2024-03-08T10:45:38.730Z,98235.03
2024-03-08T10:48:36.795Z,98227.34
2024-03-08T10:51:08.419Z,98234.19
2024-03-08T10:53:40.918Z,98237.53
2024-03-08T10:56:10.471Z,98231.59
2024-03-08T10:58:40.765Z,98241.88
2024-03-08T11:01:11.500Z,98240.19
2024-03-08T11:03:54.364Z,98235.88
2024-03-08T11:06:31.661Z,98218.78
2024-03-08T11:08:59.691Z,98240.19
2024-03-08T11:11:34.218Z,98234.19
2024-03-08T11:14:05.780Z,98219.53
2024-03-08T11:16:44.273Z,98216.88
2024-03-08T11:19:27.182Z,98202.94
2024-03-08T11:22:03.029Z,98203.66
2024-03-08T11:24:41.432Z,98199.50
2024-03-08T11:27:10.918Z,98200.09
2024-03-08T11:29:41.343Z,98196.03
2024-03-08T11:32:14.254Z,98194.06
2024-03-08T11:34:45.972Z,98168.16
2024-03-08T11:37:16.960Z,98195.34
2024-03-08T11:39:53.330Z,98182.66
2024-03-08T11:42:23.090Z,98180.50
2024-03-08T11:44:53.460Z,98160.25
2024-03-08T11:47:22.003Z,98170.97
2024-03-08T11:49:50.348Z,98164.59
2024-03-08T11:52:19.925Z,98164.25
2024-03-08T11:54:55.768Z,98170.03
2024-03-08T11:57:25.485Z,98155.69
2024-03-08T11:59:57.634Z,98129.31
2024-03-08T12:02:26.167Z,98150.38
2024-03-08T12:04:58.790Z,98148.28
2024-03-08T12:07:26.630Z,98132.34
2024-03-08T12:10:18.631Z,98127.94
2024-03-08T12:12:48.074Z,98126.84
2024-03-08T12:15:16.853Z,98130.75
2024-03-08T12:17:44.993Z,98115.00
2024-03-08T12:20:18.248Z,98115.38
2024-03-08T12:22:50.181Z,98116.34
2024-03-08T12:25:18.096Z,98113.69
2024-03-08T12:27:47.178Z,98101.63
2024-03-08T12:30:28.193Z,98096.38
2024-03-08T12:32:59.079Z,98102.38
2024-03-08T12:35:28.637Z,98104.31
2024-03-08T12:37:58.505Z,98098.94
2024-03-08T12:40:33.463Z,98090.47
2024-03-08T12:43:01.579Z,98073.13
2024-03-08T12:45:30.939Z,98085.94
2024-03-08T12:48:00.686Z,98072.19
2024-03-08T12:50:28.549Z,98078.22
2024-03-08T12:52:57.040Z,98073.69
2024-03-08T12:55:25.323Z,98069.03
2024-03-08T12:57:54.334Z,98054.16
2024-03-08T13:00:24.756Z,98062.59
2024-03-08T13:02:54.261Z,98056.50
2024-03-08T13:05:22.743Z,98042.47
2024-03-08T13:07:50.960Z,98040.13
2024-03-08T13:10:21.831Z,98042.09
2024-03-08T13:12:52.956Z,98041.31
2024-03-08T13:15:23.759Z,98031.53
2024-03-08T13:17:52.007Z,98017.63
2024-03-08T13:20:27.955Z,98030.31
2024-03-08T13:23:03.206Z,98018.03
2024-03-08T13:25:31.135Z,98031.75
2024-03-08T13:28:00.827Z,98030.25
2024-03-08T13:30:28.857Z,98001.81
2024-03-08T13:32:56.745Z,98017.16
2024-03-08T13:35:31.535Z,98016.00
2024-03-08T13:37:59.596Z,98010.34
2024-03-08T13:40:27.486Z,97983.28
2024-03-08T13:42:55.382Z,97999.28
2024-03-08T13:45:25.786Z,97983.47
2024-03-08T13:47:56.207Z,97971.94
2024-03-08T13:50:24.634Z,97966.00
2024-03-08T13:52:56.568Z,97954.56
2024-03-08T13:55:26.804Z,97967.47
2024-03-08T13:57:55.571Z,97956.94
2024-03-08T14:00:24.423Z,97954.94
2024-03-08T14:02:52.381Z,97945.59
2024-03-08T14:05:21.170Z,97945.50
2024-03-08T14:07:50.744Z,97944.84
2024-03-08T14:10:21.773Z,97933.78
2024-03-08T14:12:52.083Z,97940.75
2024-03-08T14:15:21.661Z,97914.72
2024-03-08T14:17:54.928Z,97905.41
2024-03-08T14:20:26.426Z,97919.38
2024-03-08T14:22:54.747Z,97915.75
2024-03-08T14:25:26.762Z,97902.09
2024-03-08T14:27:59.289Z,97906.03
2024-03-08T14:30:42.176Z,97898.84
2024-03-08T14:33:10.934Z,97897.81
2024-03-08T14:35:39.191Z,97896.25
2024-03-08T14:38:09.602Z,97900.13
2024-03-08T14:40:39.777Z,97893.13
2024-03-08T14:43:07.792Z,97895.00
2024-03-08T14:45:36.017Z,97887.06
2024-03-08T14:48:05.873Z,97880.84
2024-03-08T14:50:34.298Z,97887.53
2024-03-08T14:53:07.724Z,97878.53
2024-03-08T14:55:36.119Z,97871.53
2024-03-08T14:58:06.084Z,97859.00
2024-03-08T15:00:36.069Z,97840.63
2024-03-08T15:03:06.246Z,97863.91
2024-03-08T15:05:38.956Z,97858.44
2024-03-08T15:08:12.401Z,97861.38
2024-03-08T15:10:41.994Z,97859.34
2024-03-08T15:13:23.143Z,97847.59
2024-03-08T15:15:56.058Z,97839.78
2024-03-08T15:18:30.951Z,97836.56
2024-03-08T15:20:58.807Z,97833.25
2024-03-08T15:23:27.175Z,97828.53
2024-03-08T15:25:55.773Z,97819.78
2024-03-08T15:28:31.986Z,97816.81
2024-03-08T15:31:06.514Z,97808.69
2024-03-08T15:33:38.261Z,97805.84
2024-03-08T15:36:10.739Z,97802.88
2024-03-08T15:38:39.144Z,97806.22
2024-03-08T15:41:11.143Z,97792.16
2024-03-08T15:43:42.490Z,97797.84
2024-03-08T15:46:11.646Z,97802.16
2024-03-08T15:48:41.726Z,97793.16
2024-03-08T15:51:12.408Z,97790.31
2024-03-08T15:53:40.677Z,97787.13
2024-03-08T15:56:10.724Z,97769.34
2024-03-08T15:58:40.289Z,97788.22
2024-03-08T16:01:08.985Z,97786.00
2024-03-08T16:03:37.551Z,97776.06
2024-03-08T16:06:07.498Z,97775.22
2024-03-08T16:08:38.623Z,97780.03
2024-03-08T16:11:07.939Z,97770.81
2024-03-08T16:13:39.486Z,97773.63
2024-03-08T16:16:09.450Z,97772.38
2024-03-08T16:18:39.266Z,97761.34
2024-03-08T16:21:08.955Z,97717.31
2024-03-08T16:23:37.802Z,97762.91
2024-03-08T16:26:07.698Z,97722.78
2024-03-08T16:28:41.486Z,97761.19
2024-03-08T16:31:12.081Z,97762.19
2024-03-08T16:33:41.441Z,97758.19
2024-03-08T16:36:12.082Z,97751.59
2024-03-08T16:38:40.808Z,97750.53
2024-03-08T16:41:09.012Z,97751.56
2024-03-08T16:43:38.017Z,97714.06
2024-03-08T16:46:06.281Z,97718.13
2024-03-08T16:48:37.228Z,97751.69
2024-03-08T16:51:10.273Z,97749.56
2024-03-08T16:53:42.126Z,97750.84
2024-03-08T16:56:13.807Z,97752.06
2024-03-08T16:58:44.535Z,97746.44
2024-03-08T17:01:13.085Z,97746.59
2024-03-08T17:03:52.002Z,97736.78
2024-03-08T17:06:27.289Z,97700.38
2024-03-08T17:08:55.397Z,97715.69
2024-03-08T17:11:25.341Z,97728.44
2024-03-08T17:13:53.581Z,97725.09
2024-03-08T17:16:25.876Z,97719.28
2024-03-08T17:18:55.963Z,97723.69
2024-03-08T17:21:25.903Z,97718.69
2024-03-08T17:23:54.134Z,97722.22
2024-03-08T17:26:22.462Z,97728.34
2024-03-08T17:28:51.438Z,97730.97
2024-03-08T17:31:20.410Z,97727.66
2024-03-08T17:33:49.005Z,97732.75
2024-03-08T17:36:20.554Z,97731.13
2024-03-08T17:38:51.419Z,97725.22
2024-03-08T17:41:24.775Z,97726.97
2024-03-08T17:43:53.630Z,97715.06
2024-03-08T17:46:22.159Z,97726.97
2024-03-08T17:48:50.162Z,97717.66
2024-03-08T17:51:19.334Z,97732.13
2024-03-08T17:53:49.587Z,97727.91
2024-03-08T17:56:17.576Z,97724.50
2024-03-08T17:58:46.362Z,97729.59
2024-03-08T18:01:15.029Z,97727.06
2024-03-08T18:03:43.333Z,97715.19
2024-03-08T18:06:11.420Z,97719.47
2024-03-08T18:08:43.945Z,97715.22
2024-03-08T18:11:11.960Z,97716.94
2024-03-08T18:13:40.266Z,97706.75
2024-03-08T18:16:09.191Z,97710.13
2024-03-08T18:18:38.145Z,97706.72
2024-03-08T18:21:07.088Z,97684.63
2024-03-08T18:23:35.327Z,97698.22
2024-03-08T18:26:04.796Z,97676.97
2024-03-08T18:28:33.228Z,97677.78
2024-03-08T18:31:02.006Z,97678.63
2024-03-08T18:33:33.589Z,97682.06
2024-03-08T18:36:01.904Z,97674.41
2024-03-08T18:38:29.786Z,97676.09
2024-03-08T18:40:58.989Z,97681.19
2024-03-08T18:43:28.972Z,97679.50
2024-03-08T18:45:58.852Z,97682.91
2024-03-08T18:48:27.694Z,97682.06
2024-03-08T18:50:55.740Z,97676.94
2024-03-08T18:53:24.362Z,97689.72
2024-03-08T18:55:52.776Z,97673.53
2024-03-08T18:58:30.570Z,97687.19
2024-03-08T19:01:06.443Z,97683.75
2024-03-08T19:03:35.687Z,97690.53
2024-03-08T19:06:04.046Z,97684.59
2024-03-08T19:08:37.086Z,97684.63
2024-03-08T19:11:05.981Z,97668.44
2024-03-08T19:13:34.521Z,97679.50
2024-03-08T19:16:02.420Z,97684.59
2024-03-08T19:18:31.584Z,97670.97
2024-03-08T19:21:01.261Z,97685.44
2024-03-08T19:23:32.236Z,97688.84
2024-03-08T19:26:02.244Z,97678.63
2024-03-08T19:28:35.607Z,97687.13
2024-03-08T19:31:18.560Z,97685.44
2024-03-08T19:33:54.961Z,97650.56
2024-03-08T19:36:26.305Z,97673.53
2024-03-08T19:38:55.925Z,97685.41
2024-03-08T19:41:25.367Z,97686.28
2024-03-08T19:43:53.343Z,97688.81
2024-03-08T19:46:22.492Z,97695.59
2024-03-08T19:48:51.741Z,97672.63
2024-03-08T19:51:19.812Z,97683.69
2024-03-08T19:53:50.348Z,97689.63
2024-03-08T19:56:18.610Z,97692.97
2024-03-08T19:58:48.598Z,97693.78
2024-03-08T20:01:16.845Z,97692.91
2024-03-08T20:03:45.583Z,97691.19
2024-03-08T20:06:14.711Z,97673.31
2024-03-08T20:08:43.245Z,97686.06
2024-03-08T20:11:12.136Z,97657.13
2024-03-08T20:13:40.928Z,97693.72
2024-03-08T20:16:10.982Z,97694.56
2024-03-08T20:18:39.363Z,97683.53
2024-03-08T20:21:07.694Z,97688.63
2024-03-08T20:23:37.266Z,97689.47
2024-03-08T20:26:12.562Z,97690.34
2024-03-08T20:28:42.983Z,97685.22
2024-03-08T20:31:11.956Z,97673.34
2024-03-08T20:33:42.320Z,97678.47
2024-03-08T20:36:12.178Z,97673.44
2024-03-08T20:38:42.589Z,97661.59
2024-03-08T20:41:12.633Z,97654.81
2024-03-08T20:43:41.754Z,97646.31
2024-03-08T20:46:09.563Z,97625.91
2024-03-08T20:48:37.679Z,97636.13
2024-03-08T20:51:07.751Z,97640.38
2024-03-08T20:53:35.878Z,97640.38
2024-03-08T20:56:05.536Z,97643.75
2024-03-08T20:58:33.393Z,97645.47
2024-03-08T21:01:05.110Z,97635.25
2024-03-08T21:03:33.086Z,97637.81
2024-03-08T21:06:00.786Z,97637.84
2024-03-08T21:08:29.662Z,97644.63
2024-03-08T21:11:00.317Z,97648.88
2024-03-08T21:13:29.689Z,97637.81
2024-03-08T21:15:59.253Z,97604.66
2024-03-08T21:18:27.994Z,97647.16
2024-03-08T21:20:57.222Z,97636.13
2024-03-08T21:23:26.574Z,97643.75
2024-03-08T21:25:55.241Z,97639.53
2024-03-08T21:28:30.253Z,97636.09
2024-03-08T21:31:01.992Z,97639.53
2024-03-08T21:33:30.632Z,97646.31
2024-03-08T21:36:00.694Z,97652.25
2024-03-08T21:38:28.565Z,97643.75
2024-03-08T21:41:02.738Z,97662.41
2024-03-08T21:43:36.377Z,97634.31
2024-03-08T21:46:06.057Z,97653.00
2024-03-08T21:48:34.425Z,97651.28
2024-03-08T21:51:02.250Z,97660.59
2024-03-08T21:53:35.069Z,97656.38
2024-03-08T21:56:04.763Z,97658.91
2024-03-08T21:58:35.219Z,97627.38
2024-03-08T22:01:06.030Z,97668.22
2024-03-08T22:03:37.077Z,97663.94
2024-03-08T22:06:11.246Z,97651.13
2024-03-08T22:08:42.176Z,97672.38
2024-03-08T22:11:10.592Z,97671.44
2024-03-08T22:13:38.710Z,97662.06
2024-03-08T22:16:07.103Z,97661.22
2024-03-08T22:18:38.772Z,97663.72
2024-03-08T22:21:08.148Z,97648.38
2024-03-08T22:23:35.899Z,97662.81
2024-03-08T22:26:08.637Z,97665.34
2024-03-08T22:28:36.761Z,97658.56
2024-03-08T22:31:07.535Z,97654.28
2024-03-08T22:33:36.967Z,97654.25
2024-03-08T22:36:08.364Z,97651.72
2024-03-08T22:38:36.692Z,97652.53
2024-03-08T22:41:04.630Z,97649.13
2024-03-08T22:43:33.095Z,97642.38
2024-03-08T22:46:01.008Z,97629.63
2024-03-08T22:48:29.112Z,97638.13
2024-03-08T22:50:59.257Z,97644.06
2024-03-08T22:53:29.290Z,97636.38
2024-03-08T22:55:57.440Z,97630.47
2024-03-08T22:58:25.191Z,97638.16
2024-03-08T23:01:03.412Z,97618.63
2024-03-08T23:03:35.604Z,97639.03
2024-03-08T23:06:05.705Z,97636.53
2024-03-08T23:08:33.988Z,97636.50
2024-03-08T23:11:02.909Z,97594.78
2024-03-08T23:13:30.969Z,97631.38
2024-03-08T23:16:02.669Z,97617.72
2024-03-08T23:18:31.282Z,97628.78
2024-03-08T23:20:59.012Z,97623.69
2024-03-08T23:23:28.493Z,97627.06
2024-03-08T23:25:56.476Z,97633.03
2024-03-08T23:28:24.933Z,97629.56
2024-03-08T23:30:53.642Z,97627.00
2024-03-08T23:33:21.491Z,97529.94
2024-03-08T23:35:49.788Z,97615.03
2024-03-08T23:38:19.616Z,97642.31
2024-03-08T23:40:49.432Z,97663.66
2024-03-08T23:43:18.502Z,97661.19
2024-03-08T23:45:46.448Z,97669.66
2024-03-08T23:48:16.015Z,97668.75
2024-03-08T23:50:44.396Z,97667.06
2024-03-08T23:53:12.787Z,97663.59
2024-03-08T23:55:40.689Z,97653.22
2024-03-08T23:58:12.305Z,97654.88
